sensor_id;sensor_type;location;lat;lon;timestamp;pressure;altitude;pressure_sealevel;temperature;humidity
53619;BME280;68717;53.040;18.488;2023-10-08T00:00:05;101007.06;;;12.74;100.00
53619;BME280;68717;53.040;18.488;2023-10-08T00:00:52;101011.44;;;12.75;100.00
53619;BME280;68717;53.040;18.488;2023-10-08T00:01:28;101015.97;;;12.74;100.00
53619;BME280;68717;53.040;18.488;2023-10-08T00:01:45;101012.44;;;12.74;100.00
53619;BME280;68717;53.040;18.488;2023-10-08T00:01:58;101011.44;;;12.75;100.00
53619;BME280;68717;53.040;18.488;2023-10-08T00:02:11;101010.47;;;12.76;100.00
53619;BME280;68717;53.040;18.488;2023-10-08T00:02:26;101011.44;;;12.75;100.00
53619;BME280;68717;53.040;18.488;2023-10-08T00:02:39;101014.97;;;12.76;100.00
53619;BME280;68717;53.040;18.488;2023-10-08T00:02:53;101010.47;;;12.76;100.00
53619;BME280;68717;53.040;18.488;2023-10-08T00:03:07;101010.59;;;12.74;100.00
53619;BME280;68717;53.040;18.488;2023-10-08T00:03:21;101011.44;;;12.75;100.00
53619;BME280;68717;53.040;18.488;2023-10-08T00:03:34;101015.97;;;12.74;100.00
53619;BME280;68717;53.040;18.488;2023-10-08T00:03:49;101011.56;;;12.73;100.00
53619;BME280;68717;53.040;18.488;2023-10-08T00:04:04;101015.97;;;12.74;100.00
53619;BME280;68717;53.040;18.488;2023-10-08T00:04:17;101012.44;;;12.74;100.00
53619;BME280;68717;53.040;18.488;2023-10-08T00:04:32;101017.81;;;12.74;100.00
53619;BME280;68717;53.040;18.488;2023-10-08T00:04:49;101008.03;;;12.73;100.00
53619;BME280;68717;53.040;18.488;2023-10-08T00:05:03;101012.44;;;12.74;100.00
53619;BME280;68717;53.040;18.488;2023-10-08T00:05:16;101002.66;;;12.73;100.00
53619;BME280;68717;53.040;18.488;2023-10-08T00:05:35;101008.03;;;12.73;100.00
53619;BME280;68717;53.040;18.488;2023-10-08T00:05:48;101004.50;;;12.72;100.00
53619;BME280;68717;53.040;18.488;2023-10-08T00:06:03;101012.56;;;12.72;100.00
53619;BME280;68717;53.040;18.488;2023-10-08T00:06:20;101009.03;;;12.72;100.00
53619;BME280;68717;53.040;18.488;2023-10-08T00:06:33;101009.03;;;12.72;100.00
53619;BME280;68717;53.040;18.488;2023-10-08T00:06:47;101007.19;;;12.72;100.00
53619;BME280;68717;53.040;18.488;2023-10-08T00:07:00;101006.34;;;12.72;100.00
53619;BME280;68717;53.040;18.488;2023-10-08T00:07:12;101006.34;;;12.72;100.00
53619;BME280;68717;53.040;18.488;2023-10-08T00:07:25;101011.72;;;12.72;100.00
53619;BME280;68717;53.040;18.488;2023-10-08T00:07:40;101015.25;;;12.72;100.00
53619;BME280;68717;53.040;18.488;2023-10-08T00:07:54;101014.41;;;12.72;100.00
53619;BME280;68717;53.040;18.488;2023-10-08T00:08:08;101011.72;;;12.72;100.00
53619;BME280;68717;53.040;18.488;2023-10-08T00:08:22;101012.56;;;12.72;100.00
53619;BME280;68717;53.040;18.488;2023-10-08T00:08:35;101010.88;;;12.71;100.00
53619;BME280;68717;53.040;18.488;2023-10-08T00:08:49;101009.03;;;12.72;100.00
53619;BME280;68717;53.040;18.488;2023-10-08T00:09:02;101010.72;;;12.73;100.00
53619;BME280;68717;53.040;18.488;2023-10-08T00:09:18;101018.78;;;12.73;100.00
53619;BME280;68717;53.040;18.488;2023-10-08T00:09:33;101018.78;;;12.73;100.00
53619;BME280;68717;53.040;18.488;2023-10-08T00:09:49;101021.50;;;12.73;100.00
53619;BME280;68717;53.040;18.488;2023-10-08T00:10:04;101013.41;;;12.73;100.00
53619;BME280;68717;53.040;18.488;2023-10-08T00:10:17;101006.34;;;12.72;100.00
53619;BME280;68717;53.040;18.488;2023-10-08T00:10:34;101005.34;;;12.73;100.00
53619;BME280;68717;53.040;18.488;2023-10-08T00:10:47;101009.75;;;12.74;100.00
53619;BME280;68717;53.040;18.488;2023-10-08T00:10:59;101008.03;;;12.73;100.00
53619;BME280;68717;53.040;18.488;2023-10-08T00:11:19;101004.50;;;12.72;100.00
53619;BME280;68717;53.040;18.488;2023-10-08T00:11:35;101007.91;;;12.74;100.00
53619;BME280;68717;53.040;18.488;2023-10-08T00:11:49;101005.34;;;12.73;100.00
53619;BME280;68717;53.040;18.488;2023-10-08T00:12:06;101012.44;;;12.74;100.00
53619;BME280;68717;53.040;18.488;2023-10-08T00:12:20;101015.13;;;12.74;100.00
53619;BME280;68717;53.040;18.488;2023-10-08T00:12:33;101007.06;;;12.74;100.00
53619;BME280;68717;53.040;18.488;2023-10-08T00:12:45;101013.41;;;12.73;100.00
53619;BME280;68717;53.040;18.488;2023-10-08T00:12:59;101009.75;;;12.74;100.00
53619;BME280;68717;53.040;18.488;2023-10-08T00:13:13;101011.56;;;12.73;100.00
53619;BME280;68717;53.040;18.488;2023-10-08T00:13:27;101011.56;;;12.73;100.00
53619;BME280;68717;53.040;18.488;2023-10-08T00:13:42;101013.41;;;12.73;100.00
53619;BME280;68717;53.040;18.488;2023-10-08T00:13:56;101010.72;;;12.73;100.00
53619;BME280;68717;53.040;18.488;2023-10-08T00:14:09;101009.03;;;12.72;100.00
53619;BME280;68717;53.040;18.488;2023-10-08T00:14:23;101006.34;;;12.72;100.00
53619;BME280;68717;53.040;18.488;2023-10-08T00:14:36;101007.31;;;12.71;100.00
53619;BME280;68717;53.040;18.488;2023-10-08T00:14:56;101007.31;;;12.71;100.00
53619;BME280;68717;53.040;18.488;2023-10-08T00:15:12;101006.47;;;12.70;100.00
53619;BME280;68717;53.040;18.488;2023-10-08T00:15:24;101002.09;;;12.69;100.00
53619;BME280;68717;53.040;18.488;2023-10-08T00:15:38;101002.94;;;12.70;100.00
53619;BME280;68717;53.040;18.488;2023-10-08T00:15:54;101009.16;;;12.70;100.00
53619;BME280;68717;53.040;18.488;2023-10-08T00:16:09;101003.78;;;12.70;100.00
53619;BME280;68717;53.040;18.488;2023-10-08T00:16:22;101006.63;;;12.69;100.00
53619;BME280;68717;53.040;18.488;2023-10-08T00:16:35;101009.31;;;12.69;100.00
53619;BME280;68717;53.040;18.488;2023-10-08T00:16:51;101012.00;;;12.69;100.00
53619;BME280;68717;53.040;18.488;2023-10-08T00:17:03;101008.47;;;12.68;100.00
53619;BME280;68717;53.040;18.488;2023-10-08T00:17:17;101009.31;;;12.69;100.00
53619;BME280;68717;53.040;18.488;2023-10-08T00:17:30;101012.72;;;12.71;100.00
53619;BME280;68717;53.040;18.488;2023-10-08T00:17:44;101010.19;;;12.69;100.00
53619;BME280;68717;53.040;18.488;2023-10-08T00:17:58;101014.69;;;12.69;100.00
53619;BME280;68717;53.040;18.488;2023-10-08T00:18:11;101016.41;;;12.70;100.00
53619;BME280;68717;53.040;18.488;2023-10-08T00:18:27;101015.41;;;12.71;100.00
53619;BME280;68717;53.040;18.488;2023-10-08T00:18:40;101016.53;;;12.68;100.00
53619;BME280;68717;53.040;18.488;2023-10-08T00:18:54;101017.53;;;12.67;100.00
53619;BME280;68717;53.040;18.488;2023-10-08T00:19:12;101016.53;;;12.68;100.00
53619;BME280;68717;53.040;18.488;2023-10-08T00:19:27;101021.91;;;12.68;100.00
53619;BME280;68717;53.040;18.488;2023-10-08T00:19:48;101014.69;;;12.69;100.00
53619;BME280;68717;53.040;18.488;2023-10-08T00:20:06;101013.00;;;12.68;100.00
53619;BME280;68717;53.040;18.488;2023-10-08T00:20:20;101013.97;;;12.67;100.00
53619;BME280;68717;53.040;18.488;2023-10-08T00:20:38;101015.69;;;12.68;100.00
53619;BME280;68717;53.040;18.488;2023-10-08T00:20:58;101010.31;;;12.68;100.00
53619;BME280;68717;53.040;18.488;2023-10-08T00:21:28;101020.06;;;12.69;100.00
53619;BME280;68717;53.040;18.488;2023-10-08T00:21:45;101015.69;;;12.68;100.00
53619;BME280;68717;53.040;18.488;2023-10-08T00:22:00;101009.47;;;12.67;100.00
53619;BME280;68717;53.040;18.488;2023-10-08T00:22:18;101021.91;;;12.68;100.00
53619;BME280;68717;53.040;18.488;2023-10-08T00:22:31;101016.66;;;12.67;100.00
53619;BME280;68717;53.040;18.488;2023-10-08T00:22:48;101015.69;;;12.68;100.00
53619;BME280;68717;53.040;18.488;2023-10-08T00:23:01;101015.69;;;12.68;100.00
53619;BME280;68717;53.040;18.488;2023-10-08T00:23:15;101012.00;;;12.69;100.00
53619;BME280;68717;53.040;18.488;2023-10-08T00:23:29;101021.91;;;12.68;100.00
53619;BME280;68717;53.040;18.488;2023-10-08T00:23:44;101013.00;;;12.68;100.00
53619;BME280;68717;53.040;18.488;2023-10-08T00:24:05;101012.88;;;12.69;100.00
53619;BME280;68717;53.040;18.488;2023-10-08T00:24:18;101015.69;;;12.68;100.00
53619;BME280;68717;53.040;18.488;2023-10-08T00:24:39;101013.84;;;12.68;100.00
53619;BME280;68717;53.040;18.488;2023-10-08T00:24:53;101016.53;;;12.68;100.00
53619;BME280;68717;53.040;18.488;2023-10-08T00:25:10;101021.91;;;12.68;100.00
53619;BME280;68717;53.040;18.488;2023-10-08T00:25:24;101026.44;;;12.68;100.00
53619;BME280;68717;53.040;18.488;2023-10-08T00:25:36;101023.75;;;12.68;100.00
53619;BME280;68717;53.040;18.488;2023-10-08T00:25:53;101023.75;;;12.68;100.00
53619;BME280;68717;53.040;18.488;2023-10-08T00:26:07;101023.75;;;12.68;100.00
53619;BME280;68717;53.040;18.488;2023-10-08T00:26:22;101024.59;;;12.68;100.00
53619;BME280;68717;53.040;18.488;2023-10-08T00:26:40;101025.44;;;12.69;100.00
53619;BME280;68717;53.040;18.488;2023-10-08T00:26:53;101022.75;;;12.69;100.00
53619;BME280;68717;53.040;18.488;2023-10-08T00:27:07;101022.75;;;12.69;100.00
53619;BME280;68717;53.040;18.488;2023-10-08T00:27:21;101029.13;;;12.68;100.00
53619;BME280;68717;53.040;18.488;2023-10-08T00:27:34;101023.75;;;12.68;100.00
53619;BME280;68717;53.040;18.488;2023-10-08T00:27:52;101030.97;;;12.67;100.00
53619;BME280;68717;53.040;18.488;2023-10-08T00:28:05;101024.72;;;12.67;100.00
53619;BME280;68717;53.040;18.488;2023-10-08T00:28:20;101028.28;;;12.67;100.00
53619;BME280;68717;53.040;18.488;2023-10-08T00:28:33;101030.97;;;12.67;100.00
53619;BME280;68717;53.040;18.488;2023-10-08T00:28:46;101024.72;;;12.67;100.00
53619;BME280;68717;53.040;18.488;2023-10-08T00:29:00;101025.59;;;12.67;100.00
53619;BME280;68717;53.040;18.488;2023-10-08T00:29:18;101027.41;;;12.67;100.00
53619;BME280;68717;53.040;18.488;2023-10-08T00:29:34;101029.25;;;12.66;100.00
53619;BME280;68717;53.040;18.488;2023-10-08T00:29:51;101023.75;;;12.68;100.00
53619;BME280;68717;53.040;18.488;2023-10-08T00:30:05;101026.44;;;12.68;100.00
53619;BME280;68717;53.040;18.488;2023-10-08T00:30:30;101031.81;;;12.68;100.00
53619;BME280;68717;53.040;18.488;2023-10-08T00:30:46;101023.75;;;12.68;100.00
53619;BME280;68717;53.040;18.488;2023-10-08T00:31:02;101026.44;;;12.68;100.00
53619;BME280;68717;53.040;18.488;2023-10-08T00:31:19;101026.44;;;12.68;100.00
53619;BME280;68717;53.040;18.488;2023-10-08T00:31:36;101028.28;;;12.67;100.00
53619;BME280;68717;53.040;18.488;2023-10-08T00:31:53;101026.56;;;12.66;100.00
53619;BME280;68717;53.040;18.488;2023-10-08T00:32:09;101028.44;;;12.66;100.00
53619;BME280;68717;53.040;18.488;2023-10-08T00:32:25;101033.81;;;12.66;100.00
53619;BME280;68717;53.040;18.488;2023-10-08T00:32:38;101024.03;;;12.65;100.00
53619;BME280;68717;53.040;18.488;2023-10-08T00:32:50;101031.13;;;12.66;100.00
53619;BME280;68717;53.040;18.488;2023-10-08T00:33:04;101029.25;;;12.66;100.00
53619;BME280;68717;53.040;18.488;2023-10-08T00:33:17;101026.56;;;12.66;100.00
53619;BME280;68717;53.040;18.488;2023-10-08T00:33:31;101022.91;;;12.67;100.00
53619;BME280;68717;53.040;18.488;2023-10-08T00:33:45;101024.72;;;12.67;100.00
53619;BME280;68717;53.040;18.488;2023-10-08T00:33:58;101029.25;;;12.66;100.00
53619;BME280;68717;53.040;18.488;2023-10-08T00:34:11;101023.88;;;12.66;100.00
53619;BME280;68717;53.040;18.488;2023-10-08T00:34:24;101023.03;;;12.66;100.00
53619;BME280;68717;53.040;18.488;2023-10-08T00:34:37;101022.03;;;12.67;100.00
53619;BME280;68717;53.040;18.488;2023-10-08T00:34:53;101017.66;;;12.66;100.00
53619;BME280;68717;53.040;18.488;2023-10-08T00:35:08;101017.66;;;12.66;100.00
53619;BME280;68717;53.040;18.488;2023-10-08T00:35:26;101019.34;;;12.67;100.00
53619;BME280;68717;53.040;18.488;2023-10-08T00:35:40;101018.50;;;12.66;100.00
53619;BME280;68717;53.040;18.488;2023-10-08T00:35:54;101010.56;;;12.65;100.00
53619;BME280;68717;53.040;18.488;2023-10-08T00:36:06;101016.81;;;12.65;100.00
53619;BME280;68717;53.040;18.488;2023-10-08T00:36:30;101012.28;;;12.66;100.00
53619;BME280;68717;53.040;18.488;2023-10-08T00:36:44;101006.06;;;12.65;100.00
53619;BME280;68717;53.040;18.488;2023-10-08T00:36:58;101017.66;;;12.66;100.00
53619;BME280;68717;53.040;18.488;2023-10-08T00:37:11;101010.56;;;12.65;100.00
53619;BME280;68717;53.040;18.488;2023-10-08T00:37:26;101011.44;;;12.65;100.00
53619;BME280;68717;53.040;18.488;2023-10-08T00:37:39;101014.25;;;12.64;100.00
53619;BME280;68717;53.040;18.488;2023-10-08T00:37:52;101015.09;;;12.64;100.00
53619;BME280;68717;53.040;18.488;2023-10-08T00:38:06;101012.41;;;12.64;100.00
53619;BME280;68717;53.040;18.488;2023-10-08T00:38:20;101017.78;;;12.64;100.00
53619;BME280;68717;53.040;18.488;2023-10-08T00:38:33;101012.41;;;12.64;100.00
53619;BME280;68717;53.040;18.488;2023-10-08T00:38:46;101010.56;;;12.65;100.00
53619;BME280;68717;53.040;18.488;2023-10-08T00:39:03;101014.13;;;12.65;100.00
53619;BME280;68717;53.040;18.488;2023-10-08T00:39:20;101010.56;;;12.65;100.00
53619;BME280;68717;53.040;18.488;2023-10-08T00:39:36;101006.91;;;12.66;100.00
53619;BME280;68717;53.040;18.488;2023-10-08T00:39:50;101000.69;;;12.65;100.00
53619;BME280;68717;53.040;18.488;2023-10-08T00:40:05;101008.75;;;12.65;100.00
53619;BME280;68717;53.040;18.488;2023-10-08T00:40:24;101001.53;;;12.66;100.00
53619;BME280;68717;53.040;18.488;2023-10-08T00:40:37;101002.50;;;12.65;100.00
53619;BME280;68717;53.040;18.488;2023-10-08T00:40:50;100998.13;;;12.64;100.00
53619;BME280;68717;53.040;18.488;2023-10-08T00:41:08;101009.72;;;12.64;100.00
53619;BME280;68717;53.040;18.488;2023-10-08T00:41:23;101004.50;;;12.63;100.00
53619;BME280;68717;53.040;18.488;2023-10-08T00:41:36;101005.47;;;12.62;100.00
53619;BME280;68717;53.040;18.488;2023-10-08T00:41:52;101003.63;;;12.62;100.00
53619;BME280;68717;53.040;18.488;2023-10-08T00:42:12;101005.47;;;12.62;100.00
53619;BME280;68717;53.040;18.488;2023-10-08T00:42:25;101004.63;;;12.61;100.00
53619;BME280;68717;53.040;18.488;2023-10-08T00:42:38;101009.00;;;12.62;100.00
53619;BME280;68717;53.040;18.488;2023-10-08T00:42:57;101006.50;;;12.61;100.00
53619;BME280;68717;53.040;18.488;2023-10-08T00:43:10;101007.34;;;12.61;100.00
53619;BME280;68717;53.040;18.488;2023-10-08T00:43:29;101013.56;;;12.62;100.00
53619;BME280;68717;53.040;18.488;2023-10-08T00:43:43;101010.03;;;12.61;100.00
53619;BME280;68717;53.040;18.488;2023-10-08T00:43:58;101016.25;;;12.62;100.00
53619;BME280;68717;53.040;18.488;2023-10-08T00:44:13;101013.56;;;12.62;100.00
53619;BME280;68717;53.040;18.488;2023-10-08T00:44:28;101014.56;;;12.61;100.00
53619;BME280;68717;53.040;18.488;2023-10-08T00:44:42;101013.56;;;12.62;100.00
53619;BME280;68717;53.040;18.488;2023-10-08T00:45:00;101016.25;;;12.62;100.00
53619;BME280;68717;53.040;18.488;2023-10-08T00:45:17;101012.72;;;12.61;100.00
53619;BME280;68717;53.040;18.488;2023-10-08T00:45:31;101020.78;;;12.61;100.00
53619;BME280;68717;53.040;18.488;2023-10-08T00:45:44;101021.63;;;12.62;100.00
53619;BME280;68717;53.040;18.488;2023-10-08T00:46:03;101024.31;;;12.62;100.00
53619;BME280;68717;53.040;18.488;2023-10-08T00:46:19;101022.47;;;12.62;100.00
53619;BME280;68717;53.040;18.488;2023-10-08T00:46:36;101014.56;;;12.61;100.00
53619;BME280;68717;53.040;18.488;2023-10-08T00:47:01;101020.78;;;12.61;100.00
53619;BME280;68717;53.040;18.488;2023-10-08T00:47:15;101023.47;;;12.61;100.00
53619;BME280;68717;53.040;18.488;2023-10-08T00:47:29;101019.94;;;12.61;100.00
53619;BME280;68717;53.040;18.488;2023-10-08T00:47:46;101017.25;;;12.61;100.00
53619;BME280;68717;53.040;18.488;2023-10-08T00:47:59;101022.63;;;12.61;100.00
53619;BME280;68717;53.040;18.488;2023-10-08T00:48:13;101025.31;;;12.61;100.00
53619;BME280;68717;53.040;18.488;2023-10-08T00:48:29;101028.00;;;12.61;100.00
53619;BME280;68717;53.040;18.488;2023-10-08T00:48:50;101033.38;;;12.61;100.00
53619;BME280;68717;53.040;18.488;2023-10-08T00:49:06;101036.06;;;12.61;100.00
53619;BME280;68717;53.040;18.488;2023-10-08T00:49:36;101045.81;;;12.62;100.00
53619;BME280;68717;53.040;18.488;2023-10-08T00:50:00;101040.44;;;12.62;100.00
53619;BME280;68717;53.040;18.488;2023-10-08T00:50:18;101041.44;;;12.61;100.00
53619;BME280;68717;53.040;18.488;2023-10-08T00:50:34;101042.28;;;12.61;100.00
53619;BME280;68717;53.040;18.488;2023-10-08T00:50:56;101044.97;;;12.61;100.00
53619;BME280;68717;53.040;18.488;2023-10-08T00:51:21;101044.13;;;12.61;100.00
53619;BME280;68717;53.040;18.488;2023-10-08T00:51:55;101062.09;;;12.60;100.00
53619;BME280;68717;53.040;18.488;2023-10-08T00:52:16;101052.22;;;12.61;100.00
53619;BME280;68717;53.040;18.488;2023-10-08T00:52:39;101061.25;;;12.60;100.00
53619;BME280;68717;53.040;18.488;2023-10-08T00:52:55;101054.19;;;12.59;100.00
53619;BME280;68717;53.040;18.488;2023-10-08T00:53:13;101051.50;;;12.59;100.00
53619;BME280;68717;53.040;18.488;2023-10-08T00:53:33;101060.41;;;12.59;100.00
53619;BME280;68717;53.040;18.488;2023-10-08T00:53:56;101059.56;;;12.59;100.00
53619;BME280;68717;53.040;18.488;2023-10-08T00:54:18;101051.50;;;12.59;100.00
53619;BME280;68717;53.040;18.488;2023-10-08T00:54:31;101047.09;;;12.58;100.00
53619;BME280;68717;53.040;18.488;2023-10-08T00:54:45;101049.66;;;12.59;100.00
53619;BME280;68717;53.040;18.488;2023-10-08T00:55:08;101050.50;;;12.60;100.00
53619;BME280;68717;53.040;18.488;2023-10-08T00:55:34;101046.84;;;12.61;100.00
53619;BME280;68717;53.040;18.488;2023-10-08T00:55:48;101044.13;;;12.61;100.00
53619;BME280;68717;53.040;18.488;2023-10-08T00:56:06;101052.22;;;12.61;100.00
53619;BME280;68717;53.040;18.488;2023-10-08T00:56:29;101052.22;;;12.61;100.00
53619;BME280;68717;53.040;18.488;2023-10-08T00:56:59;101053.91;;;12.62;100.00
53619;BME280;68717;53.040;18.488;2023-10-08T00:57:19;101056.59;;;12.62;100.00
53619;BME280;68717;53.040;18.488;2023-10-08T00:57:36;101057.44;;;12.62;100.00
53619;BME280;68717;53.040;18.488;2023-10-08T00:57:58;101066.38;;;12.63;100.00
53619;BME280;68717;53.040;18.488;2023-10-08T00:58:11;101065.66;;;12.61;100.00
53619;BME280;68717;53.040;18.488;2023-10-08T00:58:24;101060.28;;;12.61;100.00
53619;BME280;68717;53.040;18.488;2023-10-08T00:58:53;101062.81;;;12.62;100.00
53619;BME280;68717;53.040;18.488;2023-10-08T00:59:06;101069.19;;;12.61;100.00
53619;BME280;68717;53.040;18.488;2023-10-08T00:59:19;101068.34;;;12.61;100.00
53619;BME280;68717;53.040;18.488;2023-10-08T00:59:35;101066.50;;;12.61;100.00
53619;BME280;68717;53.040;18.488;2023-10-08T00:59:53;101072.00;;;12.60;100.00
53619;BME280;68717;53.040;18.488;2023-10-08T01:00:08;101066.63;;;12.60;100.00
53619;BME280;68717;53.040;18.488;2023-10-08T01:00:31;101072.00;;;12.60;100.00
53619;BME280;68717;53.040;18.488;2023-10-08T01:00:46;101073.84;;;12.59;100.00
53619;BME280;68717;53.040;18.488;2023-10-08T01:01:00;101072.00;;;12.60;100.00
53619;BME280;68717;53.040;18.488;2023-10-08T01:01:14;101075.69;;;12.59;100.00
53619;BME280;68717;53.040;18.488;2023-10-08T01:01:29;101069.44;;;12.58;100.00
53619;BME280;68717;53.040;18.488;2023-10-08T01:01:44;101072.00;;;12.60;100.00
53619;BME280;68717;53.040;18.488;2023-10-08T01:01:58;101075.69;;;12.59;100.00
53619;BME280;68717;53.040;18.488;2023-10-08T01:02:11;101071.16;;;12.59;100.00
53619;BME280;68717;53.040;18.488;2023-10-08T01:02:28;101072.00;;;12.60;100.00
53619;BME280;68717;53.040;18.488;2023-10-08T01:02:55;101076.53;;;12.59;100.00
53619;BME280;68717;53.040;18.488;2023-10-08T01:03:13;101073.00;;;12.59;100.00
53619;BME280;68717;53.040;18.488;2023-10-08T01:03:28;101081.06;;;12.59;100.00
53619;BME280;68717;53.040;18.488;2023-10-08T01:03:48;101078.50;;;12.57;100.00
53619;BME280;68717;53.040;18.488;2023-10-08T01:04:03;101076.66;;;12.58;100.00
53619;BME280;68717;53.040;18.488;2023-10-08T01:04:25;101084.75;;;12.58;100.00
53619;BME280;68717;53.040;18.488;2023-10-08T01:04:39;101076.66;;;12.58;100.00
53619;BME280;68717;53.040;18.488;2023-10-08T01:04:53;101079.38;;;12.58;100.00
53619;BME280;68717;53.040;18.488;2023-10-08T01:05:06;101083.91;;;12.57;100.00
53619;BME280;68717;53.040;18.488;2023-10-08T01:05:22;101072.28;;;12.57;100.00
53619;BME280;68717;53.040;18.488;2023-10-08T01:05:41;101069.88;;;12.53;100.00
53619;BME280;68717;53.040;18.488;2023-10-08T01:06:00;101075.25;;;12.53;100.00
53619;BME280;68717;53.040;18.488;2023-10-08T01:06:16;101072.72;;;12.52;100.00
53619;BME280;68717;53.040;18.488;2023-10-08T01:06:31;101080.78;;;12.52;100.00
53619;BME280;68717;53.040;18.488;2023-10-08T01:06:44;101080.91;;;12.50;100.00
53619;BME280;68717;53.040;18.488;2023-10-08T01:06:57;101073.81;;;12.49;100.00
53619;BME280;68717;53.040;18.488;2023-10-08T01:07:13;101078.34;;;12.49;100.00
53619;BME280;68717;53.040;18.488;2023-10-08T01:07:28;101081.88;;;12.49;100.00
53619;BME280;68717;53.040;18.488;2023-10-08T01:07:43;101075.66;;;12.49;100.00
53619;BME280;68717;53.040;18.488;2023-10-08T01:08:01;101074.81;;;12.48;100.00
53619;BME280;68717;53.040;18.488;2023-10-08T01:08:18;101077.50;;;12.48;100.00
53619;BME280;68717;53.040;18.488;2023-10-08T01:08:35;101077.50;;;12.48;100.00
53619;BME280;68717;53.040;18.488;2023-10-08T01:08:48;101082.88;;;12.48;100.00
53619;BME280;68717;53.040;18.488;2023-10-08T01:09:05;101082.03;;;12.48;100.00
53619;BME280;68717;53.040;18.488;2023-10-08T01:09:30;101072.25;;;12.47;100.00
53619;BME280;68717;53.040;18.488;2023-10-08T01:09:47;101077.50;;;12.48;100.00
53619;BME280;68717;53.040;18.488;2023-10-08T01:10:04;101078.47;;;12.47;100.00
53619;BME280;68717;53.040;18.488;2023-10-08T01:10:23;101078.47;;;12.47;100.00
53619;BME280;68717;53.040;18.488;2023-10-08T01:10:37;101073.09;;;12.47;100.00
53619;BME280;68717;53.040;18.488;2023-10-08T01:10:52;101075.78;;;12.47;100.00
53619;BME280;68717;53.040;18.488;2023-10-08T01:11:17;101076.50;;;12.49;100.00
53619;BME280;68717;53.040;18.488;2023-10-08T01:11:31;101071.13;;;12.49;100.00
53619;BME280;68717;53.040;18.488;2023-10-08T01:12:07;101072.84;;;12.50;100.00
53619;BME280;68717;53.040;18.488;2023-10-08T01:12:21;101065.75;;;12.49;100.00
53619;BME280;68717;53.040;18.488;2023-10-08T01:12:36;101064.06;;;12.48;100.00
53619;BME280;68717;53.040;18.488;2023-10-08T01:12:57;101063.22;;;12.48;100.00
53619;BME280;68717;53.040;18.488;2023-10-08T01:13:16;101058.69;;;12.48;100.00
53619;BME280;68717;53.040;18.488;2023-10-08T01:13:33;101062.34;;;12.47;100.00
53619;BME280;68717;53.040;18.488;2023-10-08T01:13:51;101064.19;;;12.47;100.00
53619;BME280;68717;53.040;18.488;2023-10-08T01:14:06;101065.03;;;12.47;100.00
53619;BME280;68717;53.040;18.488;2023-10-08T01:14:20;101060.66;;;12.46;100.00
53619;BME280;68717;53.040;18.488;2023-10-08T01:14:37;101060.66;;;12.46;100.00
53619;BME280;68717;53.040;18.488;2023-10-08T01:14:55;101062.63;;;12.44;100.00
53619;BME280;68717;53.040;18.488;2023-10-08T01:15:17;101066.16;;;12.45;100.00
53619;BME280;68717;53.040;18.488;2023-10-08T01:15:35;101066.16;;;12.45;100.00
53619;BME280;68717;53.040;18.488;2023-10-08T01:15:49;101062.63;;;12.44;100.00
53619;BME280;68717;53.040;18.488;2023-10-08T01:16:03;101062.63;;;12.44;100.00
53619;BME280;68717;53.040;18.488;2023-10-08T01:16:16;101059.22;;;12.42;100.00
53619;BME280;68717;53.040;18.488;2023-10-08T01:16:30;101069.97;;;12.42;100.00
53619;BME280;68717;53.040;18.488;2023-10-08T01:16:46;101063.75;;;12.42;100.00
53619;BME280;68717;53.040;18.488;2023-10-08T01:16:59;101064.72;;;12.41;100.00
53619;BME280;68717;53.040;18.488;2023-10-08T01:17:13;101068.13;;;12.43;100.00
53619;BME280;68717;53.040;18.488;2023-10-08T01:17:28;101067.16;;;12.44;100.00
53619;BME280;68717;53.040;18.488;2023-10-08T01:17:44;101066.31;;;12.43;100.00
53619;BME280;68717;53.040;18.488;2023-10-08T01:18:04;101069.13;;;12.42;100.00
53619;BME280;68717;53.040;18.488;2023-10-08T01:18:18;101061.06;;;12.42;100.00
53619;BME280;68717;53.040;18.488;2023-10-08T01:18:37;101068.28;;;12.41;100.00
53619;BME280;68717;53.040;18.488;2023-10-08T01:18:55;101066.56;;;12.40;100.00
53619;BME280;68717;53.040;18.488;2023-10-08T01:19:17;101060.47;;;12.38;100.00
53619;BME280;68717;53.040;18.488;2023-10-08T01:19:31;101071.22;;;12.38;100.00
53619;BME280;68717;53.040;18.488;2023-10-08T01:19:45;101068.53;;;12.38;100.00
53619;BME280;68717;53.040;18.488;2023-10-08T01:20:03;101059.63;;;12.38;100.00
53619;BME280;68717;53.040;18.488;2023-10-08T01:20:33;101075.91;;;12.36;100.00
53619;BME280;68717;53.040;18.488;2023-10-08T01:20:46;101071.38;;;12.37;100.00
53619;BME280;68717;53.040;18.488;2023-10-08T01:21:04;101070.50;;;12.36;100.00
53619;BME280;68717;53.040;18.488;2023-10-08T01:21:20;101071.53;;;12.35;100.00
53619;BME280;68717;53.040;18.488;2023-10-08T01:21:47;101079.59;;;12.35;100.00
53619;BME280;68717;53.040;18.488;2023-10-08T01:22:05;101078.75;;;12.35;100.00
53619;BME280;68717;53.040;18.488;2023-10-08T01:22:19;101071.53;;;12.35;100.00
53619;BME280;68717;53.040;18.488;2023-10-08T01:22:34;101076.91;;;12.35;100.00
53619;BME280;68717;53.040;18.488;2023-10-08T01:22:47;101078.75;;;12.35;100.00
53619;BME280;68717;53.040;18.488;2023-10-08T01:23:01;101077.88;;;12.34;100.00